Houston, Texas
Traffic Map
Current Weather Conditions
Houston, Texas
Clear
Clear
25°
Feels Like: 26°
Wind Chill: 25° Ceiling: Unl
Heat Index: 26° Visibility: 9mi
Dew Point: 24° Wind: 5mph
Humidity: 94% Direction: 30° (NNE)
Pressure: 30.02in Gusts: 0mph
Raw Report DataKMCJ 161115Z AUTO 03004KT 9SM CLR 25/24 A3002 RMK AO1
Traffic Incident Summary
Active as of:
Severity:
Category:
InformationThere was an issue retrieving the traffic information for this location. Please try a different location or try again shortly.
Advertisements
Track Severe Weather on mobile